This is the latest recevied weather packets stored in our database for station/object EA3DJ-10. If no packets are shown the sender has not sent any weather packets the latest 10 day(s).
| Time | Temp. | Humidity | Pressure | Rain* | Wind** | Luminosity | Snow |
|---|---|---|---|---|---|---|---|
| 1788327625 | 27.78° C | 50% | 1021 hPa | - | - | - | - |
| 1788326425 | 27.78° C | 49% | 1021 hPa | - | - | - | - |
| 1788325225 | 27.78° C | 50% | 1021 hPa | - | - | - | - |
| 1788324025 | 27.78° C | 49% | 1020.9 hPa | - | - | - | - |
| 1788322825 | 27.78° C | 48% | 1020.9 hPa | - | - | - | - |
| 1788321625 | 27.78° C | 48% | 1020.9 hPa | - | - | - | - |
| 1788320425 | 28.33° C | 47% | 1021 hPa | - | - | - | - |
| 1788319266 | 28.33° C | 48% | 1021 hPa | - | - | - | - |
| 1788319225 | 28.33° C | 48% | 1021 hPa | - | - | - | - |
| 1788318024 | 28.33° C | 47% | 1021 hPa | - | - | - | - |
| 1788316856 | 28.89° C | 46% | 1021.1 hPa | - | - | - | - |
| 1788316824 | 28.89° C | 46% | 1021.1 hPa | - | - | - | - |
| 1788315624 | 28.89° C | 47% | 1021.1 hPa | - | - | - | - |
| 1788314424 | 28.89° C | 45% | 1021.1 hPa | - | - | - | - |
| 1788313224 | 33.33° C | 38% | 1021.1 hPa | - | - | - | - |
| 1788312024 | 35° C | 30% | 1021.2 hPa | - | - | - | - |
| 1788310823 | 35° C | 32% | 1021.4 hPa | - | - | - | - |
| 1788309623 | 33.33° C | 38% | 1021.4 hPa | - | - | - | - |
| 1788308423 | 32.78° C | 38% | 1021.5 hPa | - | - | - | - |
| 1788307223 | 28.89° C | 46% | 1021.5 hPa | - | - | - | - |
| 1788306022 | 27.78° C | 48% | 1021.4 hPa | - | - | - | - |
| 1788304822 | 27.78° C | 47% | 1021.6 hPa | - | - | - | - |
| 1788303622 | 27.78° C | 47% | 1021.5 hPa | - | - | - | - |
| 1788302422 | 27.78° C | 46% | 1021.2 hPa | - | - | - | - |
| 1788301222 | 27.78° C | 46% | 1021.3 hPa | - | - | - | - |
* Rain since midnight (hover to see other rain measurements)
** Current wind speed in m/s (hover to see current wind gust speed)